createdAt,value
2023-05-03T00:03:54.627Z,2.23
2023-05-03T00:08:55.969Z,2.22
2023-05-03T00:13:57.360Z,2.40
2023-05-03T00:18:59.370Z,2.30
2023-05-03T00:24:00.827Z,2.70
2023-05-03T00:29:02.156Z,2.23
2023-05-03T00:34:03.504Z,3.60
2023-05-03T00:39:04.892Z,3.53
2023-05-03T00:44:06.464Z,2.73
2023-05-03T00:49:07.808Z,2.47
2023-05-03T00:54:09.631Z,2.20
2023-05-03T00:59:11.618Z,3.03
2023-05-03T01:04:12.971Z,2.07
2023-05-03T01:09:20.939Z,2.47
2023-05-03T01:14:31.454Z,2.53
2023-05-03T01:19:35.189Z,3.33
2023-05-03T01:24:38.643Z,2.73
2023-05-03T01:29:40.069Z,3.17
2023-05-03T01:35:01.389Z,2.83
2023-05-03T01:40:05.385Z,2.50
2023-05-03T01:45:07.342Z,3.03
2023-05-03T01:50:08.983Z,2.57
2023-05-03T01:55:10.466Z,3.27
2023-05-03T02:00:12.129Z,3.50
2023-05-03T02:05:14.673Z,3.10
2023-05-03T02:10:16.318Z,3.50
2023-05-03T02:15:20.036Z,3.20
2023-05-03T02:20:21.478Z,3.10
2023-05-03T02:25:22.841Z,3.00
2023-05-03T02:30:24.232Z,3.67
2023-05-03T02:35:26.146Z,3.07
2023-05-03T02:40:27.581Z,2.57
2023-05-03T02:45:29.056Z,3.93
2023-05-03T02:50:31.096Z,3.03
2023-05-03T02:55:32.616Z,3.53
2023-05-03T03:00:34.275Z,4.93
2023-05-03T03:05:35.594Z,3.97
2023-05-03T03:10:36.983Z,3.40
2023-05-03T03:15:38.353Z,2.97
2023-05-03T03:20:39.714Z,2.77
2023-05-03T03:25:44.186Z,3.17
2023-05-03T03:30:45.695Z,3.05
2023-05-03T03:35:47.043Z,3.50
2023-05-03T03:40:48.473Z,3.13
2023-05-03T03:45:50.393Z,2.97
2023-05-03T03:50:52.001Z,3.83
2023-05-03T03:55:53.354Z,4.53
2023-05-03T04:00:54.702Z,3.37
2023-05-03T04:05:56.027Z,3.80
2023-05-03T04:10:57.415Z,4.27
2023-05-03T04:15:58.893Z,4.27
2023-05-03T04:21:00.306Z,3.77
2023-05-03T04:26:02.632Z,4.03
2023-05-03T04:31:06.364Z,4.65
2023-05-03T04:36:09.142Z,8.77
2023-05-03T04:41:11.902Z,5.43
2023-05-03T04:46:13.911Z,4.50
2023-05-03T04:51:15.342Z,4.30
2023-05-03T04:56:16.722Z,4.30
2023-05-03T05:01:18.478Z,4.10
2023-05-03T05:06:19.958Z,3.80
2023-05-03T05:11:22.193Z,4.20
2023-05-03T05:16:23.622Z,3.20
2023-05-03T05:21:24.963Z,2.90
2023-05-03T05:26:27.405Z,2.80
2023-05-03T05:31:28.806Z,2.22
2023-05-03T05:36:31.032Z,2.22
2023-05-03T05:41:32.413Z,1.90
2023-05-03T05:46:33.788Z,2.05
2023-05-03T05:51:35.478Z,1.40
2023-05-03T05:56:36.918Z,1.23
2023-05-03T06:01:41.677Z,1.85
2023-05-03T06:06:43.181Z,1.33
2023-05-03T06:11:44.615Z,2.70
2023-05-03T06:16:46.546Z,1.60
2023-05-03T06:21:47.865Z,1.47
2023-05-03T06:26:49.345Z,1.20
2023-05-03T06:31:50.656Z,1.30
2023-05-03T06:36:51.960Z,1.63
2023-05-03T06:41:53.313Z,1.25
2023-05-03T06:46:54.774Z,1.90
2023-05-03T06:51:56.223Z,2.15
2023-05-03T06:56:57.554Z,1.30
2023-05-03T07:01:58.923Z,1.02
2023-05-03T07:07:01.038Z,1.88
2023-05-03T07:12:03.418Z,1.70
2023-05-03T07:17:04.803Z,1.00
2023-05-03T07:22:06.223Z,1.50
2023-05-03T07:27:07.776Z,1.77
2023-05-03T07:32:09.197Z,1.25
2023-05-03T07:37:10.598Z,1.58
2023-05-03T07:42:12.030Z,1.77
2023-05-03T07:47:13.418Z,1.60
2023-05-03T07:52:14.736Z,1.40
2023-05-03T07:57:16.275Z,1.55
2023-05-03T08:02:17.741Z,1.73
2023-05-03T08:07:19.206Z,1.63
2023-05-03T08:12:20.566Z,2.22
2023-05-03T08:17:22.726Z,1.55
2023-05-03T08:22:26.817Z,1.40
2023-05-03T08:27:28.620Z,1.02
2023-05-03T08:32:30.473Z,1.33
2023-05-03T08:37:37.225Z,1.10
2023-05-03T08:42:39.221Z,1.50
2023-05-03T08:47:41.714Z,1.63
2023-05-03T08:52:43.400Z,2.10
2023-05-03T08:57:44.832Z,1.40
2023-05-03T09:02:46.652Z,1.75
2023-05-03T09:08:06.393Z,1.65
2023-05-03T09:13:08.718Z,1.50
2023-05-03T09:18:17.884Z,1.20
2023-05-03T09:23:32.015Z,1.48
2023-05-03T09:28:45.691Z,1.40
2023-05-03T09:33:47.062Z,1.35
2023-05-03T09:38:48.943Z,1.98
2023-05-03T09:43:51.283Z,1.95
2023-05-03T09:48:55.349Z,1.27
2023-05-03T09:53:56.759Z,2.15
2023-05-03T09:58:58.909Z,1.88
2023-05-03T10:04:01.676Z,1.38
2023-05-03T10:09:14.269Z,1.08
2023-05-03T10:14:16.190Z,2.83
2023-05-03T10:19:19.661Z,1.25
2023-05-03T10:24:21.067Z,1.80
2023-05-03T10:29:31.586Z,1.80
2023-05-03T10:34:33.912Z,1.60
2023-05-03T10:39:35.240Z,1.70
2023-05-03T10:44:48.574Z,1.88
2023-05-03T10:50:08.357Z,2.73
2023-05-03T10:55:10.886Z,3.20
2023-05-03T11:00:13.574Z,3.42
2023-05-03T11:05:17.234Z,3.63
2023-05-03T11:10:19.037Z,2.00
2023-05-03T11:15:21.149Z,1.60
2023-05-03T11:20:22.544Z,1.23
2023-05-03T11:25:23.888Z,1.58
2023-05-03T11:30:25.268Z,2.03
2023-05-03T11:35:28.698Z,1.30
2023-05-03T11:40:30.223Z,2.42
2023-05-03T11:45:32.943Z,2.30
2023-05-03T11:50:47.661Z,2.03
2023-05-03T11:55:50.477Z,1.77
2023-05-03T12:00:53.056Z,1.50
2023-05-03T12:05:55.482Z,1.42
2023-05-03T12:10:59.002Z,2.08
2023-05-03T12:16:11.991Z,2.17
2023-05-03T12:26:22.920Z,1.65
2023-05-03T12:31:24.658Z,1.55
2023-05-03T12:36:27.056Z,1.52
2023-05-03T12:42:04.654Z,1.25
2023-05-03T12:46:53.611Z,1.70
2023-05-03T12:52:11.118Z,1.27
2023-05-03T12:57:23.676Z,1.42
2023-05-03T13:12:33.414Z,1.73
2023-05-03T13:17:35.043Z,1.75
2023-05-03T13:22:36.472Z,1.08
2023-05-03T13:27:37.849Z,2.20
2023-05-03T13:32:39.263Z,1.48
2023-05-03T13:37:40.744Z,1.98
2023-05-03T13:42:42.195Z,1.40
2023-05-03T13:48:04.988Z,1.52
2023-05-03T13:53:04.974Z,2.00
2023-05-03T13:58:06.388Z,2.45
2023-05-03T14:03:08.143Z,1.83
2023-05-03T14:08:09.601Z,1.63
2023-05-03T14:13:11.373Z,1.38
2023-05-03T14:18:12.922Z,1.88
2023-05-03T14:23:14.358Z,1.50
2023-05-03T14:28:15.733Z,1.42
2023-05-03T14:33:17.564Z,1.60
2023-05-03T14:38:18.911Z,1.45
2023-05-03T14:43:20.713Z,1.67
2023-05-03T14:48:22.057Z,1.92
2023-05-03T14:53:23.570Z,1.27
2023-05-03T14:58:25.126Z,1.60
2023-05-03T15:03:26.800Z,1.70
2023-05-03T15:08:28.709Z,1.40
2023-05-03T15:13:30.173Z,1.17
2023-05-03T15:18:31.803Z,1.75
2023-05-03T15:23:33.214Z,2.15
2023-05-03T15:28:34.570Z,1.52
2023-05-03T15:33:39.939Z,2.05
2023-05-03T15:38:41.516Z,1.15
2023-05-03T15:43:43.041Z,1.88
2023-05-03T15:48:44.426Z,2.00
2023-05-03T15:53:45.912Z,1.38
2023-05-03T15:58:48.323Z,1.60
2023-05-03T16:03:50.278Z,1.55
2023-05-03T16:08:52.579Z,1.60
2023-05-03T16:13:54.182Z,1.40
2023-05-03T16:18:55.750Z,1.63
2023-05-03T16:23:57.814Z,1.77
2023-05-03T16:28:59.266Z,5.20
2023-05-03T16:34:01.047Z,2.50
2023-05-03T16:39:02.469Z,3.55
2023-05-03T16:44:05.353Z,2.40
2023-05-03T16:49:07.185Z,2.17
2023-05-03T16:54:08.614Z,2.28
2023-05-03T16:59:10.016Z,2.15
2023-05-03T17:04:11.722Z,1.83
2023-05-03T17:09:13.982Z,2.13
2023-05-03T17:14:15.396Z,1.90
2023-05-03T17:19:18.112Z,1.95
2023-05-03T17:24:19.601Z,1.63
2023-05-03T17:29:21.861Z,1.90
2023-05-03T17:34:24.893Z,2.15
2023-05-03T17:39:28.252Z,1.70
2023-05-03T17:44:29.579Z,2.30
2023-05-03T17:49:34.158Z,2.30
2023-05-03T17:54:35.529Z,2.20
2023-05-03T17:59:36.872Z,1.80
2023-05-03T18:04:38.232Z,1.45
2023-05-03T18:09:41.038Z,1.58
2023-05-03T18:14:42.633Z,1.92
2023-05-03T18:19:44.782Z,2.28
2023-05-03T18:24:46.253Z,1.90
2023-05-03T18:29:47.742Z,2.13
2023-05-03T18:34:49.351Z,1.55
2023-05-03T18:39:50.740Z,1.92
2023-05-03T18:44:52.089Z,1.95
2023-05-03T18:49:53.460Z,1.63
2023-05-03T18:54:55.006Z,2.20
2023-05-03T19:00:01.210Z,2.33
2023-05-03T19:05:03.139Z,2.10
2023-05-03T19:10:05.036Z,1.77
2023-05-03T19:15:07.037Z,1.88
2023-05-03T19:20:10.121Z,1.70
2023-05-03T19:25:11.661Z,1.90
2023-05-03T19:30:13.275Z,2.38
2023-05-03T19:35:14.776Z,1.92
2023-05-03T19:40:16.233Z,2.53
2023-05-03T19:45:17.597Z,2.60
2023-05-03T19:50:18.980Z,2.45
2023-05-03T19:55:20.783Z,6.67
2023-05-03T20:00:23.279Z,7.27
2023-05-03T20:05:24.688Z,4.20
2023-05-03T20:10:26.067Z,4.03
2023-05-03T20:15:28.415Z,2.87
2023-05-03T20:20:30.680Z,2.73
2023-05-03T20:25:32.027Z,2.70
2023-05-03T20:30:34.586Z,2.50
2023-05-03T20:35:39.052Z,2.67
2023-05-03T20:40:40.613Z,2.78
2023-05-03T20:45:42.179Z,2.73
2023-05-03T20:50:43.625Z,2.63
2023-05-03T20:55:44.961Z,3.33
2023-05-03T21:00:46.401Z,3.00
2023-05-03T21:05:47.811Z,3.23
2023-05-03T21:10:49.187Z,2.87
2023-05-03T21:15:53.537Z,3.37
2023-05-03T21:20:55.013Z,3.67
2023-05-03T21:25:56.648Z,3.30
2023-05-03T21:30:58.069Z,2.90
2023-05-03T21:35:59.975Z,3.53
2023-05-03T21:41:02.528Z,4.67
2023-05-03T21:46:07.605Z,3.83
2023-05-03T21:51:09.081Z,4.03
2023-05-03T21:56:10.418Z,4.10
2023-05-03T22:01:11.919Z,3.80
2023-05-03T22:06:13.314Z,3.77
2023-05-03T22:11:14.722Z,4.37
2023-05-03T22:16:16.251Z,4.27
2023-05-03T22:21:18.422Z,4.30
2023-05-03T22:26:20.116Z,4.07
2023-05-03T22:31:21.514Z,4.83
2023-05-03T22:36:23.170Z,3.60
2023-05-03T22:41:24.921Z,4.07
2023-05-03T22:46:26.530Z,4.77
2023-05-03T22:51:28.267Z,3.67
2023-05-03T22:56:29.651Z,3.80
2023-05-03T23:01:31.191Z,4.10
2023-05-03T23:06:32.540Z,4.03
2023-05-03T23:11:33.893Z,4.37
2023-05-03T23:16:35.390Z,4.03
2023-05-03T23:21:36.925Z,4.07
2023-05-03T23:26:38.282Z,4.27
2023-05-03T23:31:40.413Z,4.43
2023-05-03T23:36:42.265Z,4.03
2023-05-03T23:41:43.629Z,4.13
2023-05-03T23:46:44.965Z,4.87
2023-05-03T23:51:46.597Z,5.53
2023-05-03T23:56:47.997Z,4.70
